Huvudsida
METAR-TAF:

METAR-TAF

Flygplatser :

Kärrdals flygplats

Kärrdal, Estland

latitud: 58-59N, longitud: 022-49E, höjd: 5 m

Aktuellt väderrapport

Denna rapport gjordes för 12 timmar och 8 minuter sedan, klockan 15:50 UTC
Vind 11 kt från sydväst i byarna ända upp till 23 kt, varierande mellan syd och väst/nordväst
Temperatur 6°C
Fuktighet 75%
Tryck 996 hPa
Sikt 10 km eller mer
Brutna moln på en höjd av 3700 ft

METAR: EEKA 181550Z 22011G23KT 190V300 9999 BKN037 06/02 Q0996

Tid: 05:58 (03:58 UTC)

Väderprognos

Denna rapport gjordes för 14 timmar och 58 minuter sedan, klockan 13:00 UTC
Prognos gäller från 18 kl. 14 UTC till 18 kl. 20 UTC
Vind 17 kt från väst/sydväst i byarna ända upp till 30 kt
Sikt 10 km eller mer
Spridda moln på en höjd av 1500 ft
Brutna moln på en höjd av 2500 ft

TAF: EEKA 181300Z 1814/1820 24017G30KT 9999 SCT015 BKN025

Aktuella väderrapporter och prognoser från 4000 flygplatser (METAR- och TAF-rapporter).

De tillgängliga stationerna syns som gula och röda prickar på kartan.

För musen över prickarna för att se namnen på stationerna.

Klicka sedan för att få väderrapporter och prognoser.

För att ändra kartan: Klicka på de gröna knapparna med ett svart kors på för att zooma in; den gröna knappen med ett streck på för att zooma ut; eller på de gröna pilarna för angränsande kartor.


METAR-TAF: